Time;durP1;ratioP1;P1;durP2;ratioP2;P2;SDS_P1;SDS_P2;PMS_P1;PMS_P2;Temp;Humidity;BMP_temperature;BMP_pressure;BME280_temperature;BME280_humidity;BME280_pressure;Samples;Min_cycle;Max_cycle;Signal;HPM_P1;HPM_P2
2022/09/13 00:01:08;;;;;;;1.77;1.67;;;26.00;62.00;;;;;;5052823;28;20460;-78
2022/09/13 00:03:36;;;;;;;2.40;2.30;;;25.90;62.00;;;;;;5049581;28;20972;-79
2022/09/13 00:06:11;;;;;;;2.60;2.40;;;25.90;62.00;;;;;;5047939;28;20466;-79
2022/09/13 00:08:40;;;;;;;2.20;2.10;;;25.90;62.00;;;;;;5050032;28;20447;-79
2022/09/13 00:11:14;;;;;;;2.13;2.03;;;25.90;62.00;;;;;;5051100;28;21541;-79
2022/09/13 00:13:43;;;;;;;2.10;2.00;;;25.90;62.00;;;;;;5046022;28;20457;-80
2022/09/13 00:16:12;;;;;;;2.13;2.03;;;25.90;61.90;;;;;;5047827;28;20450;-79
2022/09/13 00:18:41;;;;;;;2.30;2.20;;;25.90;61.90;;;;;;5053094;28;20459;-80
2022/09/13 00:21:14;;;;;;;1.87;1.77;;;25.90;61.90;;;;;;5033711;28;20484;-79
2022/09/13 00:23:44;;;;;;;2.40;2.20;;;25.90;61.90;;;;;;5038312;28;20472;-79
2022/09/13 00:26:14;;;;;;;4.00;2.17;;;25.90;61.90;;;;;;5050478;28;20456;-79
2022/09/13 00:28:44;;;;;;;2.33;2.20;;;25.90;61.90;;;;;;5053936;28;20486;-79
2022/09/13 00:31:12;;;;;;;2.10;2.00;;;25.90;61.90;;;;;;5050002;28;20483;-79
2022/09/13 00:33:41;;;;;;;1.93;1.83;;;25.80;61.90;;;;;;5053098;28;20563;-80
2022/09/13 00:36:12;;;;;;;2.00;1.90;;;25.80;61.80;;;;;;5051364;28;20462;-79
2022/09/13 00:38:41;;;;;;;1.90;1.80;;;25.80;61.80;;;;;;5053010;28;20445;-80
2022/09/13 00:41:13;;;;;;;2.40;2.20;;;25.80;61.80;;;;;;5049949;28;20448;-79
2022/09/13 00:43:45;;;;;;;2.13;2.03;;;25.80;61.80;;;;;;5048463;28;20927;-80
2022/09/13 00:46:19;;;;;;;2.50;2.30;;;25.80;61.80;;;;;;5053501;28;20478;-80
2022/09/13 00:48:49;;;;;;;2.50;2.40;;;25.80;61.80;;;;;;5043480;28;20456;-80
2022/09/13 00:51:19;;;;;;;2.73;2.53;;;25.80;61.80;;;;;;5051752;28;20435;-80
2022/09/13 00:53:51;;;;;;;2.30;2.20;;;25.80;61.70;;;;;;5052888;28;20461;-80
2022/09/13 00:56:22;;;;;;;2.10;2.00;;;25.70;61.70;;;;;;5031684;28;20437;-80
2022/09/13 00:58:54;;;;;;;2.33;2.23;;;25.70;61.70;;;;;;5034422;28;20900;-79
2022/09/13 01:01:29;;;;;;;2.00;1.90;;;25.70;61.70;;;;;;5053638;28;20436;-79
2022/09/13 01:03:57;;;;;;;2.23;2.13;;;25.70;61.70;;;;;;5052241;28;20560;-79
2022/09/13 01:06:31;;;;;;;2.30;2.10;;;25.70;61.70;;;;;;5040226;28;20461;-79
2022/09/13 01:09:03;;;;;;;2.07;1.97;;;25.70;61.60;;;;;;5032727;28;20812;-79
2022/09/13 01:11:39;;;;;;;2.30;2.10;;;25.70;61.70;;;;;;5052009;28;20455;-79
2022/09/13 01:14:08;;;;;;;2.50;2.40;;;25.70;61.70;;;;;;5051720;28;20465;-79
2022/09/13 01:16:36;;;;;;;2.20;2.07;;;25.70;61.60;;;;;;5053044;28;21044;-80
2022/09/13 01:19:05;;;;;;;1.97;1.87;;;25.70;61.80;;;;;;5052636;28;20895;-79
2022/09/13 01:22:31;;;;;;;2.10;2.00;;;25.70;61.60;;;;;;5044127;28;20543;-79
2022/09/13 01:25:41;;;;;;;2.93;2.73;;;25.70;61.60;;;;;;5024465;28;20504;-79
2022/09/13 01:28:53;;;;;;;2.37;2.27;;;25.70;61.50;;;;;;5027093;28;20512;-79
2022/09/13 01:31:28;;;;;;;2.10;2.00;;;25.70;61.60;;;;;;5032990;28;20460;-79
2022/09/13 01:34:13;;;;;;;2.70;2.50;;;25.60;61.50;;;;;;5045336;28;20538;-79
2022/09/13 01:37:03;;;;;;;2.67;2.47;;;25.60;61.50;;;;;;5052350;28;20784;-79
2022/09/13 01:39:47;;;;;;;2.30;2.20;;;25.60;61.50;;;;;;5038002;28;20452;-79
2022/09/13 01:42:21;;;;;;;2.43;2.20;;;25.60;61.50;;;;;;5046316;28;20965;-79
2022/09/13 01:45:03;;;;;;;2.27;2.17;;;25.60;61.50;;;;;;5040834;28;20830;-79
2022/09/13 01:47:37;;;;;;;2.47;2.27;;;25.60;61.50;;;;;;5032826;28;20447;-79
2022/09/13 01:50:15;;;;;;;2.30;2.20;;;25.60;61.50;;;;;;5038249;28;20456;-79
2022/09/13 01:52:50;;;;;;;2.13;2.00;;;25.60;61.50;;;;;;5049272;28;20465;-79
2022/09/13 01:55:29;;;;;;;1.70;1.60;;;25.60;61.50;;;;;;5048307;28;20449;-79
2022/09/13 01:58:08;;;;;;;2.10;2.00;;;25.60;61.50;;;;;;5043340;28;20556;-79
2022/09/13 02:00:44;;;;;;;2.03;1.93;;;25.60;61.50;;;;;;5051828;28;20423;-79
2022/09/13 02:03:18;;;;;;;2.30;1.90;;;25.60;61.50;;;;;;5051883;28;20966;-79
2022/09/13 02:05:51;;;;;;;2.73;2.53;;;25.50;61.50;;;;;;5052084;28;20441;-79
2022/09/13 02:08:26;;;;;;;4.40;2.30;;;25.50;61.50;;;;;;5045333;28;20470;-79
2022/09/13 02:11:01;;;;;;;2.20;2.10;;;25.50;61.50;;;;;;5051399;28;20774;-79
2022/09/13 02:13:36;;;;;;;1.90;1.80;;;25.50;61.50;;;;;;5050437;28;20462;-79
2022/09/13 02:16:12;;;;;;;2.37;2.23;;;25.50;61.40;;;;;;5051775;28;20449;-80
2022/09/13 02:18:46;;;;;;;2.37;2.27;;;25.50;61.40;;;;;;5050819;28;20450;-79
2022/09/13 02:21:19;;;;;;;2.30;2.10;;;25.50;61.40;;;;;;5052410;28;20777;-80
2022/09/13 02:23:52;;;;;;;1.73;1.63;;;25.50;61.40;;;;;;5051006;28;20480;-80
2022/09/13 02:26:22;;;;;;;2.00;1.90;;;25.50;61.40;;;;;;5051161;28;20447;-78
2022/09/13 02:28:52;;;;;;;2.27;2.17;;;25.50;61.40;;;;;;5051990;28;20430;-79
2022/09/13 02:31:28;;;;;;;1.90;1.80;;;25.50;61.40;;;;;;5032771;28;20462;-79
2022/09/13 02:34:03;;;;;;;2.03;1.93;;;25.50;61.40;;;;;;5047848;28;20451;-79
2022/09/13 02:36:36;;;;;;;2.33;2.23;;;25.50;61.40;;;;;;5051755;28;20525;-80
2022/09/13 02:39:09;;;;;;;2.00;1.90;;;25.40;61.30;;;;;;5051522;28;20452;-79
2022/09/13 02:41:43;;;;;;;2.00;1.90;;;25.50;61.30;;;;;;5051518;28;20427;-79
2022/09/13 02:44:15;;;;;;;2.33;2.17;;;25.40;61.30;;;;;;5051013;28;20478;-79
2022/09/13 02:47:00;;;;;;;2.00;1.90;;;25.40;61.30;;;;;;5046221;28;20463;-80
2022/09/13 02:49:34;;;;;;;2.00;1.90;;;25.40;61.30;;;;;;5040746;28;20464;-79
2022/09/13 02:52:11;;;;;;;2.30;2.20;;;25.40;61.30;;;;;;5050815;28;20444;-80
2022/09/13 02:54:42;;;;;;;2.20;2.07;;;25.40;61.30;;;;;;5032218;28;20441;-80
2022/09/13 02:57:15;;;;;;;2.33;2.13;;;25.40;61.30;;;;;;5048008;28;20452;-79
2022/09/13 02:59:43;;;;;;;1.97;1.87;;;25.40;61.30;;;;;;5051240;28;20436;-80
2022/09/13 03:02:14;;;;;;;2.10;2.00;;;25.40;61.20;;;;;;5049262;28;20467;-80
2022/09/13 03:04:44;;;;;;;3.00;2.90;;;25.40;61.30;;;;;;5049570;28;20474;-79
2022/09/13 03:07:13;;;;;;;2.17;2.07;;;25.40;61.20;;;;;;5051114;28;20453;-80
2022/09/13 03:09:46;;;;;;;2.00;1.90;;;25.40;61.20;;;;;;5050959;28;20533;-79
2022/09/13 03:12:36;;;;;;;2.17;2.07;;;25.30;61.20;;;;;;5049451;28;20477;-79
2022/09/13 03:15:15;;;;;;;1.97;1.87;;;25.30;61.20;;;;;;5052455;28;21173;-80
2022/09/13 03:17:54;;;;;;;2.00;1.90;;;25.30;61.20;;;;;;5055009;28;20910;-80
2022/09/13 03:20:36;;;;;;;2.00;1.90;;;25.30;61.20;;;;;;5052091;28;20450;-80
2022/09/13 03:23:24;;;;;;;2.13;1.70;;;25.30;61.20;;;;;;5037573;28;20453;-79
2022/09/13 03:26:27;;;;;;;2.00;1.90;;;25.30;61.20;;;;;;5035202;28;20441;-80
2022/09/13 03:29:20;;;;;;;2.50;2.40;;;25.30;61.20;;;;;;5034892;28;20430;-79
2022/09/13 03:31:54;;;;;;;2.00;1.90;;;25.30;61.20;;;;;;5053522;28;20464;-79
2022/09/13 03:34:31;;;;;;;1.90;1.70;;;25.30;61.20;;;;;;5054533;28;20446;-79
2022/09/13 03:37:06;;;;;;;2.10;2.00;;;25.30;61.20;;;;;;5054889;28;20902;-81
2022/09/13 03:39:41;;;;;;;1.73;1.63;;;25.30;61.10;;;;;;5037559;28;20506;-79
2022/09/13 03:42:16;;;;;;;2.53;2.40;;;25.30;61.20;;;;;;5051163;28;20538;-79
2022/09/13 03:44:47;;;;;;;2.20;2.10;;;25.20;61.20;;;;;;5054156;28;20478;-80
2022/09/13 03:47:18;;;;;;;3.00;2.30;;;25.20;61.10;;;;;;5054696;28;20525;-81
2022/09/13 03:49:46;;;;;;;2.20;2.10;;;25.20;61.10;;;;;;5050510;28;21319;-80
2022/09/13 03:52:16;;;;;;;2.10;2.00;;;25.20;61.10;;;;;;5038512;28;20490;-79
2022/09/13 03:54:44;;;;;;;2.03;1.93;;;25.20;61.10;;;;;;5041243;28;20450;-80
2022/09/13 03:57:14;;;;;;;2.20;2.10;;;25.20;61.10;;;;;;5052420;28;21062;-79
2022/09/13 03:59:46;;;;;;;2.30;2.20;;;25.20;61.10;;;;;;5047929;28;21022;-80
2022/09/13 04:02:16;;;;;;;2.43;2.23;;;25.20;61.10;;;;;;5053524;28;20802;-80
2022/09/13 04:04:45;;;;;;;2.50;2.30;;;25.20;61.10;;;;;;5053945;28;20537;-80
2022/09/13 04:07:19;;;;;;;2.40;2.30;;;25.20;61.10;;;;;;5054497;28;20553;-80
2022/09/13 04:09:48;;;;;;;1.90;1.80;;;25.10;61.10;;;;;;5049613;28;20457;-79
2022/09/13 04:12:18;;;;;;;2.70;1.93;;;25.10;61.10;;;;;;5042506;28;20478;-79
2022/09/13 04:14:46;;;;;;;2.17;2.07;;;25.10;61.10;;;;;;5046528;28;20818;-79
2022/09/13 04:17:14;;;;;;;2.20;2.10;;;25.10;61.10;;;;;;5051374;28;20910;-79
2022/09/13 04:19:45;;;;;;;2.10;2.00;;;25.10;61.10;;;;;;5052271;28;20467;-80
2022/09/13 04:22:14;;;;;;;2.10;2.00;;;25.10;61.10;;;;;;5049959;28;20458;-80
2022/09/13 04:24:44;;;;;;;2.00;1.90;;;25.10;61.10;;;;;;5053159;28;20485;-80
2022/09/13 04:27:12;;;;;;;2.80;1.83;;;25.10;61.10;;;;;;5048079;28;20493;-79
2022/09/13 04:29:40;;;;;;;2.60;2.40;;;25.10;61.10;;;;;;5051041;28;20786;-79
2022/09/13 04:32:09;;;;;;;3.33;1.90;;;25.10;61.10;;;;;;5052033;28;20856;-79
2022/09/13 04:34:37;;;;;;;1.80;1.70;;;25.10;61.10;;;;;;5053659;28;20470;-79
2022/09/13 04:37:05;;;;;;;1.90;1.80;;;25.10;61.10;;;;;;5047427;28;20802;-79
2022/09/13 04:39:34;;;;;;;1.93;1.83;;;25.10;61.00;;;;;;5045590;28;20471;-80
2022/09/13 04:42:03;;;;;;;2.03;1.93;;;25.10;61.10;;;;;;5039564;28;20457;-80
2022/09/13 04:44:32;;;;;;;1.90;1.80;;;25.00;60.70;;;;;;5047213;28;20489;-79
2022/09/13 04:47:00;;;;;;;2.07;1.97;;;25.00;60.80;;;;;;5049626;28;20534;-80
2022/09/13 04:49:28;;;;;;;3.90;2.10;;;25.00;61.00;;;;;;5049393;28;20454;-80
2022/09/13 04:51:56;;;;;;;1.67;1.57;;;25.00;61.00;;;;;;5048263;28;20457;-78
2022/09/13 04:54:25;;;;;;;2.40;2.17;;;25.00;60.60;;;;;;5052200;28;20455;-80
2022/09/13 04:56:54;;;;;;;2.80;2.27;;;25.00;61.20;;;;;;5051590;28;20452;-80
2022/09/13 04:59:23;;;;;;;2.00;1.90;;;25.00;61.30;;;;;;5052730;28;20438;-80
2022/09/13 05:01:51;;;;;;;2.67;2.10;;;25.00;61.40;;;;;;5045149;28;20529;-80
2022/09/13 05:04:19;;;;;;;2.50;2.10;;;25.00;61.40;;;;;;5046595;28;20966;-80
2022/09/13 05:06:48;;;;;;;4.97;2.33;;;25.00;61.50;;;;;;5049182;28;20549;-82
2022/09/13 05:09:16;;;;;;;2.00;1.87;;;25.00;61.60;;;;;;5043175;28;20462;-87
2022/09/13 05:11:45;;;;;;;1.80;1.70;;;25.00;61.70;;;;;;5047474;28;20462;-89
2022/09/13 05:14:13;;;;;;;4.03;1.93;;;25.00;61.80;;;;;;5047209;28;20451;-88
2022/09/13 05:16:43;;;;;;;2.23;2.07;;;25.00;62.00;;;;;;5048866;28;20488;-85
2022/09/13 05:19:12;;;;;;;2.70;1.90;;;25.00;62.00;;;;;;5048599;28;20864;-88
2022/09/13 05:21:40;;;;;;;1.67;1.57;;;25.00;62.10;;;;;;5049155;28;20469;-89
2022/09/13 05:24:08;;;;;;;3.83;1.87;;;25.00;62.10;;;;;;5053140;28;20473;-89
2022/09/13 05:26:36;;;;;;;2.10;2.00;;;25.00;62.20;;;;;;5050582;28;20473;-87
2022/09/13 05:29:05;;;;;;;2.30;2.10;;;25.00;62.20;;;;;;5048865;28;20455;-86
2022/09/13 05:31:35;;;;;;;2.47;1.90;;;25.00;62.20;;;;;;5046376;28;20472;-82
2022/09/13 05:34:09;;;;;;;2.30;1.80;;;25.00;62.20;;;;;;5049057;28;20846;-87
2022/09/13 05:36:37;;;;;;;2.80;2.00;;;25.00;62.30;;;;;;5049390;28;20956;-83
2022/09/13 05:39:07;;;;;;;2.93;2.20;;;25.00;62.30;;;;;;5051145;28;20810;-84
2022/09/13 05:41:55;;;;;;;3.20;2.93;;;25.00;62.20;;;;;;5045229;28;20459;-85
2022/09/13 05:44:24;;;;;;;4.83;2.70;;;24.90;61.50;;;;;;5064673;28;20961;-83
2022/09/13 05:46:52;;;;;;;2.93;2.73;;;24.90;61.50;;;;;;5051101;28;20473;-85
2022/09/13 05:49:21;;;;;;;2.57;2.47;;;24.90;61.60;;;;;;5049013;28;20463;-86
2022/09/13 05:51:49;;;;;;;3.30;2.50;;;24.90;61.50;;;;;;5050842;28;20462;-86
2022/09/13 05:54:18;;;;;;;4.53;2.83;;;24.90;61.30;;;;;;5048098;28;20455;-85
2022/09/13 05:56:46;;;;;;;2.80;2.50;;;24.80;61.40;;;;;;5051180;28;20453;-84
2022/09/13 05:59:14;;;;;;;2.93;2.73;;;24.80;61.40;;;;;;5046321;28;20955;-84
2022/09/13 06:01:42;;;;;;;2.40;2.30;;;24.90;61.70;;;;;;5051650;28;20452;-84
2022/09/13 06:04:11;;;;;;;3.37;3.17;;;24.90;61.70;;;;;;5051764;28;20451;-85
2022/09/13 06:06:41;;;;;;;2.97;2.67;;;24.80;61.70;;;;;;5050896;28;20477;-85
2022/09/13 06:09:11;;;;;;;3.03;2.50;;;24.80;61.80;;;;;;5049894;28;20959;-88
2022/09/13 06:11:39;;;;;;;5.50;2.10;;;24.80;62.10;;;;;;5045491;28;20786;-87
2022/09/13 06:14:07;;;;;;;3.23;2.53;;;24.90;62.10;;;;;;5048289;28;20459;-88
2022/09/13 06:16:35;;;;;;;2.73;2.53;;;24.90;62.10;;;;;;5051413;28;20471;-87
2022/09/13 06:19:04;;;;;;;2.50;2.30;;;24.90;62.10;;;;;;5050918;28;20452;-85
2022/09/13 06:21:32;;;;;;;2.90;2.60;;;24.90;62.10;;;;;;5051180;28;20467;-88
2022/09/13 06:24:02;;;;;;;3.13;2.67;;;24.90;62.10;;;;;;5050517;28;20446;-87
2022/09/13 06:26:31;;;;;;;2.60;2.40;;;24.90;62.10;;;;;;5050428;28;20477;-88
2022/09/13 06:28:59;;;;;;;2.93;2.40;;;25.00;62.10;;;;;;5047879;28;20458;-87
2022/09/13 06:31:28;;;;;;;1.90;1.80;;;25.00;62.10;;;;;;5048387;28;20561;-86
2022/09/13 06:33:58;;;;;;;4.30;2.23;;;25.00;62.10;;;;;;5046994;28;20450;-87
2022/09/13 06:36:27;;;;;;;3.43;2.27;;;25.00;62.10;;;;;;5050310;28;20533;-88
2022/09/13 06:38:55;;;;;;;3.70;2.53;;;25.00;62.10;;;;;;5048334;28;20451;-88
2022/09/13 06:41:26;;;;;;;3.40;2.50;;;25.00;62.10;;;;;;5051083;28;20457;-87
2022/09/13 06:43:56;;;;;;;3.00;2.60;;;25.00;62.20;;;;;;5047358;28;20458;-87
2022/09/13 06:46:25;;;;;;;2.70;2.50;;;25.00;62.10;;;;;;5046460;28;20478;-87
2022/09/13 06:48:53;;;;;;;4.20;2.30;;;25.00;62.10;;;;;;5047840;28;20441;-88
2022/09/13 06:51:23;;;;;;;7.10;2.27;;;25.00;62.20;;;;;;5053419;28;20467;-85
2022/09/13 06:53:55;;;;;;;3.17;2.90;;;25.00;62.20;;;;;;5045433;28;21144;-84
2022/09/13 06:56:26;;;;;;;6.73;3.40;;;25.00;62.30;;;;;;5052513;28;20451;-87
2022/09/13 06:58:57;;;;;;;2.63;2.43;;;25.00;62.50;;;;;;5052041;28;20462;-85
2022/09/13 07:01:27;;;;;;;3.93;3.00;;;24.90;62.60;;;;;;5052649;28;20510;-85
2022/09/13 07:03:59;;;;;;;2.50;2.23;;;24.90;62.80;;;;;;5053226;28;20464;-83
2022/09/13 07:06:29;;;;;;;5.40;2.83;;;24.90;62.70;;;;;;5054750;28;20467;-84
2022/09/13 07:09:00;;;;;;;3.03;2.83;;;25.00;62.80;;;;;;5054760;28;20539;-83
2022/09/13 07:11:34;;;;;;;3.83;3.27;;;25.00;62.70;;;;;;5051538;28;20463;-82
2022/09/13 07:14:02;;;;;;;4.47;2.70;;;25.00;62.70;;;;;;5054605;28;20805;-86
2022/09/13 07:16:32;;;;;;;4.10;3.80;;;25.00;62.70;;;;;;5054529;28;20478;-84
2022/09/13 07:19:01;;;;;;;3.20;3.00;;;25.00;62.80;;;;;;5054443;28;20539;-86
2022/09/13 07:21:29;;;;;;;3.70;3.40;;;25.10;62.60;;;;;;5050474;28;20442;-87
2022/09/13 07:23:58;;;;;;;4.80;3.77;;;25.10;62.60;;;;;;5053591;28;20459;-85
2022/09/13 07:26:27;;;;;;;3.17;2.97;;;25.10;62.60;;;;;;5054096;28;20484;-84
2022/09/13 07:28:59;;;;;;;2.97;2.33;;;25.10;62.50;;;;;;5050395;28;21003;-85
2022/09/13 07:31:29;;;;;;;3.60;3.30;;;25.10;62.60;;;;;;5055990;28;20458;-89
2022/09/13 07:33:59;;;;;;;3.53;2.63;;;25.20;62.70;;;;;;5055846;28;20853;-83
2022/09/13 07:36:29;;;;;;;4.00;2.70;;;25.20;62.50;;;;;;5052731;28;20454;-84
2022/09/13 07:38:58;;;;;;;3.43;3.20;;;25.20;62.70;;;;;;5051482;28;20929;-83
2022/09/13 07:41:27;;;;;;;2.87;2.67;;;25.20;62.60;;;;;;5049121;28;20454;-84
2022/09/13 07:43:58;;;;;;;3.90;3.03;;;25.20;62.70;;;;;;5049196;28;20473;-84
2022/09/13 07:46:31;;;;;;;2.60;2.40;;;25.20;62.70;;;;;;5052266;28;20477;-87
2022/09/13 07:49:01;;;;;;;4.23;2.50;;;25.20;62.60;;;;;;5044263;28;20962;-86
2022/09/13 07:51:30;;;;;;;2.60;2.40;;;25.30;62.70;;;;;;5051495;28;20445;-90
2022/09/13 07:54:00;;;;;;;3.00;2.80;;;25.30;62.70;;;;;;5054692;28;20445;-87
2022/09/13 07:56:30;;;;;;;2.67;2.47;;;25.30;62.80;;;;;;5057649;28;20466;-89
2022/09/13 07:59:01;;;;;;;2.87;2.67;;;25.30;62.70;;;;;;5054459;28;20454;-84
2022/09/13 08:01:33;;;;;;;2.70;2.50;;;25.30;62.80;;;;;;5049263;28;20453;-83
2022/09/13 08:04:04;;;;;;;5.90;5.40;;;25.30;63.10;;;;;;5045975;28;20468;-85
2022/09/13 08:06:33;;;;;;;6.03;5.10;;;24.90;62.30;;;;;;5049410;28;20564;-85
2022/09/13 08:09:02;;;;;;;5.07;4.73;;;24.00;65.20;;;;;;5054177;28;20942;-87
2022/09/13 08:11:32;;;;;;;6.50;5.90;;;23.60;66.20;;;;;;5050034;28;20451;-88
2022/09/13 08:14:03;;;;;;;5.97;5.57;;;23.20;67.00;;;;;;5049092;28;20441;-84
2022/09/13 08:16:32;;;;;;;9.07;8.33;;;22.80;68.30;;;;;;5044831;28;20487;-87
2022/09/13 08:19:02;;;;;;;7.20;6.50;;;22.30;69.10;;;;;;5055123;28;20443;-85
2022/09/13 08:21:33;;;;;;;7.30;6.60;;;21.90;70.80;;;;;;5054081;28;20454;-83
2022/09/13 08:24:02;;;;;;;12.10;11.10;;;21.60;71.40;;;;;;5053979;28;20439;-88
2022/09/13 08:26:32;;;;;;;17.50;16.10;;;21.60;71.60;;;;;;5052892;28;20473;-85
2022/09/13 08:29:04;;;;;;;6.43;5.83;;;21.40;72.40;;;;;;5054461;28;20449;-85
2022/09/13 08:31:33;;;;;;;4.60;4.30;;;21.20;73.20;;;;;;5045980;28;20448;-86
2022/09/13 08:34:02;;;;;;;7.10;4.97;;;21.10;73.80;;;;;;5047472;28;20445;-86
2022/09/13 08:36:30;;;;;;;6.00;5.57;;;21.00;73.80;;;;;;5055340;28;20596;-87
2022/09/13 08:39:00;;;;;;;5.10;4.70;;;21.20;74.50;;;;;;5054540;28;20452;-91
2022/09/13 08:41:59;;;;;;;5.10;4.60;;;21.40;73.60;;;;;;5056150;28;20460;-85
2022/09/13 08:44:30;;;;;;;4.67;4.27;;;21.80;73.40;;;;;;5048046;28;20549;-87
2022/09/13 08:47:14;;;;;;;5.97;4.87;;;22.00;72.30;;;;;;5045574;28;20978;-85
2022/09/13 08:49:46;;;;;;;5.20;4.70;;;21.90;71.80;;;;;;5059893;28;20446;-85
2022/09/13 08:52:28;;;;;;;5.40;4.93;;;22.00;72.50;;;;;;5050022;28;20462;-84
2022/09/13 08:54:56;;;;;;;5.00;4.70;;;22.00;72.10;;;;;;5039017;28;20469;-84
2022/09/13 08:57:32;;;;;;;4.87;4.57;;;22.00;73.00;;;;;;5048765;28;20465;-85
2022/09/13 09:00:24;;;;;;;9.50;6.07;;;22.00;72.80;;;;;;5048670;28;20458;-81
2022/09/13 09:03:02;;;;;;;8.30;4.00;;;22.20;72.60;;;;;;5048714;28;20462;-84
2022/09/13 09:05:32;;;;;;;5.50;5.10;;;22.40;72.20;;;;;;5050434;28;20956;-82
2022/09/13 09:08:06;;;;;;;4.10;3.70;;;22.60;72.00;;;;;;5049531;28;20485;-84
2022/09/13 09:10:41;;;;;;;4.27;3.87;;;22.70;71.40;;;;;;5056855;28;20996;-87
2022/09/13 09:13:17;;;;;;;4.40;4.10;;;22.80;71.00;;;;;;5049460;28;20446;-86
2022/09/13 09:15:55;;;;;;;5.33;4.90;;;23.00;71.10;;;;;;5048328;28;20440;-84
2022/09/13 09:18:27;;;;;;;4.70;4.30;;;23.10;70.40;;;;;;5045398;28;20462;-86
2022/09/13 09:20:58;;;;;;;4.33;4.03;;;23.20;70.00;;;;;;5051935;28;20522;-86
2022/09/13 09:23:31;;;;;;;2.97;2.77;;;23.30;70.20;;;;;;5059618;28;20455;-86
2022/09/13 09:26:13;;;;;;;3.83;3.53;;;23.20;70.20;;;;;;5058262;28;20447;-89
2022/09/13 09:28:42;;;;;;;4.17;3.80;;;23.30;70.20;;;;;;5055054;28;21035;-85
2022/09/13 09:31:16;;;;;;;4.17;3.77;;;23.30;70.50;;;;;;5047024;28;20452;-85
2022/09/13 09:34:00;;;;;;;3.60;3.30;;;23.30;70.40;;;;;;5050489;28;20879;-87
2022/09/13 09:36:38;;;;;;;9.97;3.33;;;23.40;70.60;;;;;;5046812;28;20480;-89
2022/09/13 09:39:10;;;;;;;5.20;4.80;;;23.50;70.10;;;;;;5052167;28;20455;-87
2022/09/13 09:41:38;;;;;;;12.10;10.30;;;23.70;69.40;;;;;;5052038;28;20531;-87
2022/09/13 09:44:17;;;;;;;5.97;5.03;;;23.70;68.40;;;;;;5047816;28;20812;-87
2022/09/13 09:46:49;;;;;;;5.57;4.73;;;23.80;69.00;;;;;;5041216;28;20460;-87
2022/09/13 09:52:13;;;;;;;5.27;4.63;;;23.90;69.10;;;;;;5043933;28;20456;-76
2022/09/13 09:54:41;;;;;;;3.80;3.60;;;24.00;69.00;;;;;;5047390;28;20466;-76
2022/09/13 09:57:10;;;;;;;7.20;5.37;;;24.10;68.70;;;;;;5051225;28;20802;-76
2022/09/13 09:59:38;;;;;;;5.57;5.10;;;24.10;68.10;;;;;;5050475;28;20538;-75
2022/09/13 10:02:17;;;;;;;5.97;5.47;;;24.20;68.20;;;;;;5048794;28;20469;-75
2022/09/13 10:04:56;;;;;;;5.83;5.37;;;24.30;67.70;;;;;;5050656;28;21424;-76
2022/09/13 10:07:32;;;;;;;4.03;3.63;;;24.30;67.30;;;;;;5046575;28;20469;-76
2022/09/13 10:10:04;;;;;;;3.80;3.60;;;24.40;67.10;;;;;;5047271;28;20454;-76
2022/09/13 10:12:35;;;;;;;3.60;3.40;;;24.60;66.50;;;;;;5044665;28;20458;-75
2022/09/13 10:15:14;;;;;;;3.40;3.20;;;24.70;65.90;;;;;;5050291;28;20453;-75
2022/09/13 10:17:45;;;;;;;4.60;4.20;;;24.90;66.10;;;;;;5050186;28;20544;-75
2022/09/13 10:20:25;;;;;;;4.23;3.93;;;25.00;65.60;;;;;;5046296;28;20450;-77
2022/09/13 10:23:19;;;;;;;7.80;3.30;;;25.10;65.60;;;;;;5043712;28;20454;-75
2022/09/13 10:26:04;;;;;;;4.03;3.37;;;25.20;65.50;;;;;;5045745;28;20453;-76
2022/09/13 10:28:35;;;;;;;2.27;2.17;;;25.30;64.60;;;;;;5054053;28;20501;-78
2022/09/13 10:31:09;;;;;;;3.13;2.83;;;25.30;64.60;;;;;;5054667;28;20550;-76
2022/09/13 10:33:54;;;;;;;2.93;2.57;;;25.40;64.90;;;;;;5053870;28;20821;-72
2022/09/13 10:36:27;;;;;;;3.10;2.20;;;25.40;64.60;;;;;;5051994;28;20453;-70
2022/09/13 10:39:19;;;;;;;2.40;2.20;;;25.50;64.90;;;;;;5047089;28;20464;-70
2022/09/13 10:41:52;;;;;;;1.90;1.80;;;25.60;63.50;;;;;;5051338;28;20445;-71
2022/09/13 10:44:26;;;;;;;3.00;2.63;;;25.70;61.90;;;;;;5052226;28;20446;-71
2022/09/13 10:46:55;;;;;;;3.03;2.30;;;25.70;63.70;;;;;;5045229;28;20466;-74
2022/09/13 10:49:39;;;;;;;2.90;2.60;;;25.80;63.60;;;;;;5050372;28;20472;-72
2022/09/13 10:52:25;;;;;;;3.10;2.80;;;25.90;64.30;;;;;;5048615;28;20453;-77
2022/09/13 10:54:54;;;;;;;3.07;2.37;;;26.00;64.20;;;;;;5052289;28;21010;-71
2022/09/13 10:57:32;;;;;;;3.30;2.83;;;26.00;63.90;;;;;;5049024;28;20824;-73
2022/09/13 11:00:00;;;;;;;2.73;2.57;;;26.10;64.10;;;;;;5047348;28;20472;-73
2022/09/13 11:02:59;;;;;;;3.70;2.70;;;26.10;63.90;;;;;;5052939;28;20446;-69
2022/09/13 11:05:36;;;;;;;2.60;2.40;;;26.20;64.50;;;;;;5045874;28;20569;-70
2022/09/13 11:08:33;;;;;;;3.27;2.43;;;26.40;64.10;;;;;;5043622;28;20807;-71
2022/09/13 11:11:21;;;;;;;2.17;2.07;;;26.70;63.30;;;;;;5047630;28;20454;-70
2022/09/13 11:14:01;;;;;;;1.80;1.70;;;27.00;62.20;;;;;;5051716;28;20442;-69
2022/09/13 11:16:44;;;;;;;3.20;2.23;;;27.30;61.40;;;;;;5048298;28;20482;-69
2022/09/13 11:19:48;;;;;;;2.27;2.07;;;27.60;60.80;;;;;;5051216;28;20455;-70
2022/09/13 11:22:57;;;;;;;1.80;1.60;;;27.90;59.70;;;;;;5046707;28;20816;-72
2022/09/13 11:25:34;;;;;;;2.20;2.00;;;28.10;59.10;;;;;;5050903;28;20465;-70
2022/09/13 11:28:12;;;;;;;1.90;1.80;;;28.20;59.00;;;;;;5047485;28;20506;-76
2022/09/13 11:30:59;;;;;;;2.13;2.03;;;28.30;59.00;;;;;;5049074;28;20792;-76
2022/09/13 11:33:36;;;;;;;2.30;2.10;;;28.50;58.00;;;;;;5051461;28;20761;-76
2022/09/13 11:36:40;;;;;;;1.90;1.80;;;28.70;56.60;;;;;;5052079;28;20441;-78
2022/09/13 11:39:19;;;;;;;1.97;1.70;;;29.00;56.60;;;;;;5052210;28;20455;-77
2022/09/13 11:41:56;;;;;;;2.37;2.27;;;29.20;55.70;;;;;;5049031;28;20439;-76
2022/09/13 11:44:47;;;;;;;2.53;2.10;;;29.30;55.90;;;;;;5053674;28;20454;-77
2022/09/13 11:47:25;;;;;;;2.23;1.83;;;29.30;55.80;;;;;;5050385;28;20823;-77
2022/09/13 11:50:18;;;;;;;2.40;2.00;;;29.40;55.00;;;;;;5053487;28;20982;-79
2022/09/13 11:52:57;;;;;;;3.80;2.17;;;29.40;54.70;;;;;;5052412;28;20543;-81
2022/09/13 11:55:30;;;;;;;2.10;2.00;;;29.40;54.10;;;;;;5049225;28;20458;-83
2022/09/13 11:58:03;;;;;;;1.70;1.60;;;29.50;52.60;;;;;;5046403;28;20452;-83
2022/09/13 12:00:39;;;;;;;4.60;2.77;;;29.60;53.20;;;;;;5050645;28;20484;-82
2022/09/13 12:03:23;;;;;;;3.07;2.20;;;29.60;51.50;;;;;;5051648;28;20785;-83
2022/09/13 12:05:54;;;;;;;5.87;2.07;;;29.70;52.70;;;;;;5042826;28;20461;-83
2022/09/13 12:08:26;;;;;;;4.20;1.90;;;29.70;52.30;;;;;;5051006;28;20547;-83
2022/09/13 12:10:58;;;;;;;1.97;1.87;;;29.70;52.50;;;;;;5050939;28;20797;-83
2022/09/13 12:13:28;;;;;;;1.30;1.30;;;29.80;51.80;;;;;;5050237;28;20991;-83
2022/09/13 12:16:01;;;;;;;1.57;1.47;;;29.80;50.80;;;;;;5044453;28;20818;-83
2022/09/13 12:18:36;;;;;;;1.93;1.83;;;29.90;51.10;;;;;;5046634;28;20450;-83
2022/09/13 12:21:10;;;;;;;2.53;1.80;;;30.00;51.00;;;;;;5050830;28;20462;-83
2022/09/13 12:23:43;;;;;;;1.83;1.60;;;30.00;51.20;;;;;;5053463;28;20457;-83
2022/09/13 12:26:18;;;;;;;1.20;1.20;;;30.00;52.10;;;;;;5054052;28;20455;-83
2022/09/13 12:28:51;;;;;;;2.37;2.17;;;29.90;52.60;;;;;;5052643;28;20486;-83
2022/09/13 12:31:24;;;;;;;2.63;2.30;;;29.80;52.50;;;;;;5049387;28;20952;-83
2022/09/13 12:33:54;;;;;;;1.67;1.57;;;29.90;52.70;;;;;;5051873;28;20520;-79
2022/09/13 12:36:42;;;;;;;1.97;1.87;;;29.90;52.20;;;;;;5041445;28;20466;-82
2022/09/13 12:39:32;;;;;;;3.90;2.27;;;30.00;52.10;;;;;;5046891;28;20511;-77
2022/09/13 12:42:41;;;;;;;3.07;2.70;;;30.00;52.70;;;;;;5049392;28;20487;-79
2022/09/13 12:45:26;;;;;;;2.80;2.60;;;29.80;53.40;;;;;;5043797;28;20536;-79
2022/09/13 12:48:20;;;;;;;1.50;1.40;;;29.80;53.20;;;;;;5052066;28;20509;-79
2022/09/13 12:51:15;;;;;;;2.20;2.00;;;29.80;52.90;;;;;;5048909;28;20560;-78
2022/09/13 12:54:20;;;;;;;2.67;2.00;;;29.50;53.40;;;;;;5039008;28;20549;-79
2022/09/13 12:57:01;;;;;;;1.60;1.50;;;29.30;54.10;;;;;;5038460;28;20505;-79
2022/09/13 12:59:49;;;;;;;4.60;1.93;;;29.20;54.10;;;;;;5048384;28;20943;-79
2022/09/13 13:02:30;;;;;;;2.40;2.20;;;29.00;55.00;;;;;;5051558;28;20463;-80
2022/09/13 13:05:02;;;;;;;1.97;1.87;;;28.70;55.70;;;;;;5051920;28;20494;-80
2022/09/13 13:07:35;;;;;;;2.13;2.03;;;28.40;55.80;;;;;;5049242;28;20466;-84
2022/09/13 13:10:04;;;;;;;1.90;1.80;;;28.20;56.60;;;;;;5057079;23;20502;-88
2022/09/13 13:12:34;;;;;;;1.97;1.37;;;28.10;56.60;;;;;;5047498;28;20836;-87
2022/09/13 13:15:06;;;;;;;2.30;2.00;;;28.10;56.70;;;;;;5032767;28;20450;-86
2022/09/13 13:17:37;;;;;;;2.20;1.50;;;28.20;56.20;;;;;;5039218;28;20451;-85
2022/09/13 13:20:42;;;;;;;1.83;1.73;;;28.20;56.10;;;;;;5024735;28;20454;-88
2022/09/13 13:23:23;;;;;;;1.60;1.50;;;28.20;56.00;;;;;;5040055;28;20451;-85
2022/09/13 13:26:07;;;;;;;1.27;1.27;;;28.20;53.80;;;;;;5029475;28;20480;-88